METAR、SPECI、TAF(飛行場実況・予報)


■ METAR、SPECI(飛行場実況)

METAR RJNT 120100Z VRB03KT 9999 FEW030 BKN/// 29/17 Q1007 RMK 1CU030 A2974
METAR RJNT 120200Z 36006KT 300V050 9999 FEW020 BKN/// 31/17 Q1006 RMK 1CU020 A2973
METAR RJNT 120300Z 36008KT 9999 FEW020 BKN/// 31/16 Q1006 RMK 1CU020 A2972
METAR RJNT 120400Z 01009KT 9999 FEW030 BKN/// 31/16 Q1005 RMK 1CU030 A2970
SPECI RJNT 120439Z 36009KT 9999 FEW030 BKN/// 33/16 Q1005 RMK 1CU030 A2969
METAR RJNT 120500Z 36010KT 340V040 9999 FEW030 BKN/// 32/16 Q1005 RMK 1CU030 A2969
METAR RJNT 120600Z 02008KT 350V050 9999 FEW030 BKN/// 31/17 Q1005 RMK 1CU030 A2969
METAR RJNT 120700Z 01008KT 9999 FEW030 SCT070 BKN080 31/16 Q1005 RMK 1CU030 3AC070 5AC080 A2969
METAR RJNT 120800Z 01007KT 9999 FEW030 SCT080 31/15 Q1005 RMK 1CU030 3AC080 A2968
METAR RJNT 120900Z 36006KT 9999 FEW030 SCT080 BKN/// 29/17 Q1005 RMK 1CU030 4AC080 A2968
METAR RJNT 121000Z 36003KT 9999 FEW030 SCT080 BKN100 28/16 Q1005 RMK 1CU030 3AC080 5AC100 A2969
METAR RJNT 121100Z 23004KT 9999 FEW020 SCT/// 26/18 Q1005 RMK 1CU020 A2968
METAR RJNT 121200Z 24004KT 9999 FEW020 SCT/// 24/18 Q1005 RMK 1CU020 A2969
SPECI RJNT 122105Z VRB02KT 9999 FEW100 BKN/// 24/17 Q1005 RMK 1AC100 A2968
METAR RJNT 122200Z 18005KT 140V210 CAVOK 25/17 Q1004 RMK A2965
METAR RJNT 122300Z 34008KT CAVOK 26/19 Q1004 RMK A2967
METAR RJNT 130000Z VRB03KT 9999 FEW050 27/18 Q1005 RMK 1SC050 A2969
METAR RJNT 130100Z 24004KT 190V280 9999 FEW050 28/18 Q1005 RMK 1SC050 A2969
METAR RJNT 130200Z 32004KT 290V070 9999 FEW050 SCT/// 30/19 Q1004 RMK 1SC050 A2967
METAR RJNT 130300Z 26005KT 210V300 9999 FEW030 BKN/// 30/18 Q1004 RMK 1CU030 A2965
METAR RJNT 130400Z VRB04KT 9999 FEW030 31/18 Q1003 RMK 1CU030 A2962
METAR RJNT 130500Z 33005KT 280V040 9999 FEW030 32/18 Q1002 RMK 1CU030 A2961
METAR RJNT 130600Z 36009KT 9999 FEW030 32/19 Q1002 RMK 1CU030 A2961
METAR RJNT 130700Z 01007KT 340V050 9999 FEW030 31/18 Q1003 RMK 1CU030 A2962
METAR RJNT 130700Z 01007KT 340V050 9999 FEW030 31/18 Q1003 RMK 1CU030 A2962
METAR RJNT 130800Z 01008KT 9999 FEW030 30/19 Q1003 RMK 1CU030 A2963
METAR RJNT 130900Z 34008KT 9999 FEW030 28/19 Q1004 RMK 1CU030 A2965
METAR RJNT 131000Z 35006KT 9999 FEW020 26/17 Q1005 RMK 1CU020 A2968
METAR RJNT 131100Z 01004KT 9999 FEW010 SCT015 25/17 Q1006 RMK 1ST010 3CU015 A2971
METAR RJNT 131200Z VRB01KT 9999 FEW010 24/18 Q1006 RMK 1ST010 A2973
SPECI RJNT 132105Z VRB02KT 9999 FEW020 20/17 Q1008 RMK 1SC020 A2979
METAR RJNT 132200Z VRB01KT 9999 FEW020 23/18 Q1008 RMK 1SC020 A2978
METAR RJNT 132300Z VRB02KT 9999 FEW020 25/17 Q1008 RMK 1SC020 A2977
METAR RJNT 140000Z 35004KT 300V030 9999 FEW020 26/17 Q1008 RMK 1SC020 A2979
METAR RJNT 140100Z 35006KT 310V020 9999 FEW030 28/20 Q1008 RMK 1CU030 A2979
METAR RJNT 140200Z 34004KT 250V060 9999 FEW020 29/20 Q1008 RMK 1CU020 A2978
METAR RJNT 140300Z 03004KT 330V120 9999 FEW020 30/18 Q1007 RMK 1CU020 A2976
METAR RJNT 140400Z 36011KT 9999 FEW020 29/18 Q1007 RMK 1CU020 A2976
METAR RJNT 140500Z 36010KT 340V050 9999 FEW020 30/18 Q1007 RMK 1CU020 A2975
METAR RJNT 140600Z 02006KT 330V080 9999 FEW020 30/15 Q1006 RMK 1CU020 A2973
METAR RJNT 140700Z 36006KT 320V030 9999 FEW030 31/16 Q1006 RMK 1CU030 A2971
METAR RJNT 140800Z 36010KT 9999 FEW030 27/19 Q1006 RMK 1CU030 A2972
METAR RJNT 140900Z 36006KT 9999 FEW030 26/19 Q1006 RMK 1CU030 A2973
METAR RJNT 141000Z 36003KT 9999 FEW030 26/17 Q1007 RMK 1CU030 A2974
METAR RJNT 141100Z 01004KT 9999 FEW015 24/18 Q1007 RMK 1CU015 A2975
METAR RJNT 141200Z 35003KT 9999 FEW015 24/19 Q1007 RMK 1CU015 A2976
SPECI RJNT 142105Z 26003KT CAVOK 21/18 Q1006 RMK A2973
METAR RJNT 142200Z 27003KT 230V310 CAVOK 24/19 Q1006 RMK A2972
METAR RJNT 142300Z VRB02KT 9999 FEW030 27/20 Q1006 RMK 1CU030 A2971
METAR RJNT 150000Z VRB03KT 9999 FEW030 30/18 Q1005 RMK 1CU030 A2969
METAR RJNT 150100Z 36008KT 310V030 9999 FEW030 31/21 Q1004 RMK 1CU030 A2967
METAR RJNT 150200Z 35009KT 9999 FEW040 31/20 Q1004 RMK 1CU040 A2967
METAR RJNT 150300Z 36008KT 330V040 9999 FEW030 BKN/// 32/18 Q1004 RMK 1CU030 A2966
METAR RJNT 150400Z 01009KT 9999 FEW030 BKN/// 31/14 Q1004 RMK 1CU030 A2965
SPECI RJNT 150421Z 36008KT 9999 FEW030 BKN/// 33/16 Q1003 RMK 1CU030 A2964
METAR RJNT 150500Z 02007KT 330V060 9999 FEW030 BKN/// 32/15 Q1003 RMK 1CU030 A2964
METAR RJNT 150600Z 04007KT 350V090 9999 FEW030 BKN/// 32/15 Q1003 RMK 1CU030 A2963
METAR RJNT 150700Z 01006KT 330V050 9999 FEW030 BKN/// 32/15 Q1002 RMK 1CU030 A2960
METAR RJNT 150800Z 36007KT 9999 FEW030 BKN/// 31/16 Q1002 RMK 1CU030 A2961
METAR RJNT 150900Z 01006KT 9999 FEW030 BKN/// 29/17 Q1002 RMK 1CU030 A2961
METAR RJNT 151000Z 03007KT 9999 FEW040 BKN/// 28/17 Q1003 RMK 1SC040 A2963
METAR RJNT 151100Z VRB02KT 9999 FEW040 BKN/// 27/17 Q1003 RMK 1SC040 A2963
METAR RJNT 151200Z 23004KT 9999 FEW040 BKN120 25/19 Q1003 RMK 1SC040 5AC120 A2962

■ TAF(飛行場予報)

TAF RJNT 151105Z 1512/1618 21004KT 9999 FEW030
         BECMG 1600/1603 27010KT
         BECMG 1612/1615 21004KT

お知らせ

新着情報

  • 太陽光発電量推算
  • 気象予報士試験過去問・講座
  • Yahoo Weather shop
  • メルカリ Weather shop
  • BASE Weather shop

ご案内